createdAt,value
2023-04-30T00:00:39.377Z,4.28
2023-04-30T00:03:06.152Z,4.90
2023-04-30T00:05:32.853Z,4.32
2023-04-30T00:07:59.436Z,4.53
2023-04-30T00:10:26.008Z,4.53
2023-04-30T00:12:52.627Z,4.53
2023-04-30T00:15:19.347Z,4.32
2023-04-30T00:17:46.066Z,4.07
2023-04-30T00:20:13.194Z,4.20
2023-04-30T00:22:39.937Z,4.07
2023-04-30T00:25:06.840Z,4.43
2023-04-30T00:27:33.429Z,3.85
2023-04-30T00:30:00.044Z,4.30
2023-04-30T00:32:26.669Z,4.15
2023-04-30T00:34:53.355Z,4.30
2023-04-30T00:37:19.949Z,3.90
2023-04-30T00:39:46.510Z,4.18
2023-04-30T00:42:13.115Z,4.03
2023-04-30T00:44:39.719Z,4.28
2023-04-30T00:47:06.251Z,4.22
2023-04-30T00:49:33.305Z,4.10
2023-04-30T00:51:59.920Z,3.50
2023-04-30T00:54:26.623Z,4.32
2023-04-30T00:56:53.261Z,3.88
2023-04-30T00:59:19.898Z,4.75
2023-04-30T01:01:46.703Z,4.28
2023-04-30T01:04:13.527Z,4.30
2023-04-30T01:06:40.369Z,4.53
2023-04-30T01:09:07.936Z,3.88
2023-04-30T01:11:47.840Z,3.75
2023-04-30T01:14:22.932Z,3.88
2023-04-30T01:17:14.202Z,3.97
2023-04-30T01:19:43.356Z,3.47
2023-04-30T01:22:17.107Z,4.00
2023-04-30T01:27:24.530Z,3.90
2023-04-30T01:29:53.135Z,3.65
2023-04-30T01:32:19.777Z,3.78
2023-04-30T01:34:46.348Z,4.00
2023-04-30T01:37:24.609Z,3.92
2023-04-30T01:40:07.016Z,3.95
2023-04-30T01:42:37.016Z,4.00
2023-04-30T01:45:09.627Z,3.80
2023-04-30T01:47:53.118Z,3.63
2023-04-30T01:50:31.789Z,3.88
2023-04-30T01:53:00.882Z,3.92
2023-04-30T01:55:43.513Z,4.57
2023-04-30T01:58:12.840Z,4.03
2023-04-30T02:00:39.466Z,4.00
2023-04-30T02:03:06.327Z,3.80
2023-04-30T02:05:33.400Z,3.55
2023-04-30T02:08:00.221Z,3.67
2023-04-30T02:10:27.769Z,4.18
2023-04-30T02:12:54.411Z,4.40
2023-04-30T02:15:20.972Z,4.50
2023-04-30T02:17:47.930Z,3.85
2023-04-30T02:20:14.632Z,4.10
2023-04-30T02:22:41.394Z,4.38
2023-04-30T02:25:08.468Z,3.85
2023-04-30T02:27:35.066Z,4.38
2023-04-30T02:30:01.904Z,3.85
2023-04-30T02:32:28.624Z,3.95
2023-04-30T02:34:55.472Z,4.68
2023-04-30T02:37:22.864Z,4.57
2023-04-30T02:39:49.554Z,4.53
2023-04-30T02:42:16.296Z,4.20
2023-04-30T02:44:43.677Z,4.53
2023-04-30T02:47:10.557Z,4.60
2023-04-30T02:49:37.213Z,4.20
2023-04-30T02:52:03.979Z,5.20
2023-04-30T02:54:30.662Z,5.10
2023-04-30T02:56:57.313Z,5.32
2023-04-30T02:59:23.958Z,4.85
2023-04-30T03:01:50.588Z,5.30
2023-04-30T03:04:17.279Z,4.82
2023-04-30T03:06:43.997Z,4.90
2023-04-30T03:09:10.937Z,4.88
2023-04-30T03:11:37.838Z,4.70
2023-04-30T03:14:07.832Z,4.53
2023-04-30T03:16:36.823Z,4.53
2023-04-30T03:19:03.446Z,4.25
2023-04-30T03:21:30.018Z,4.30
2023-04-30T03:23:56.584Z,4.63
2023-04-30T03:26:23.215Z,4.22
2023-04-30T03:28:49.747Z,4.07
2023-04-30T03:31:16.399Z,4.75
2023-04-30T03:33:43.141Z,4.57
2023-04-30T03:36:09.754Z,5.10
2023-04-30T03:38:36.380Z,4.68
2023-04-30T03:41:03.768Z,4.22
2023-04-30T03:43:30.332Z,4.95
2023-04-30T03:45:57.464Z,4.80
2023-04-30T03:48:24.145Z,4.97
2023-04-30T03:50:50.789Z,4.57
2023-04-30T03:53:17.362Z,4.50
2023-04-30T03:55:44.019Z,4.88
2023-04-30T03:58:10.689Z,4.65
2023-04-30T04:00:37.410Z,4.65
2023-04-30T04:03:04.505Z,5.22
2023-04-30T04:05:31.231Z,4.60
2023-04-30T04:07:57.802Z,5.53
2023-04-30T04:10:24.425Z,5.57
2023-04-30T04:12:51.044Z,5.65
2023-04-30T04:15:17.583Z,5.07
2023-04-30T04:17:44.200Z,5.50
2023-04-30T04:20:13.746Z,5.95
2023-04-30T04:22:40.623Z,5.45
2023-04-30T04:25:07.407Z,5.50
2023-04-30T04:27:33.949Z,5.85
2023-04-30T04:30:00.605Z,6.82
2023-04-30T04:32:27.445Z,6.15
2023-04-30T04:34:54.482Z,6.25
2023-04-30T04:37:21.107Z,6.05
2023-04-30T04:39:47.917Z,6.18
2023-04-30T04:42:17.607Z,6.57
2023-04-30T04:44:44.201Z,6.25
2023-04-30T04:47:12.712Z,6.30
2023-04-30T04:49:39.343Z,5.90
2023-04-30T04:52:06.465Z,5.43
2023-04-30T04:54:33.393Z,5.70
2023-04-30T04:56:59.958Z,5.47
2023-04-30T04:59:26.726Z,5.70
2023-04-30T05:01:53.424Z,6.00
2023-04-30T05:04:20.111Z,5.72
2023-04-30T05:06:46.939Z,5.97
2023-04-30T05:09:13.616Z,5.68
2023-04-30T05:11:41.625Z,5.72
2023-04-30T05:14:08.362Z,6.07
2023-04-30T05:16:34.987Z,6.03
2023-04-30T05:19:01.613Z,6.15
2023-04-30T05:21:29.827Z,6.00
2023-04-30T05:23:56.433Z,5.75
2023-04-30T05:26:24.509Z,6.78
2023-04-30T05:28:52.389Z,6.25
2023-04-30T05:31:20.941Z,6.30
2023-04-30T05:33:48.010Z,6.40
2023-04-30T05:36:14.735Z,6.68
2023-04-30T05:38:41.858Z,6.18
2023-04-30T05:41:11.688Z,5.97
2023-04-30T05:43:38.304Z,5.95
2023-04-30T05:46:04.945Z,6.65
2023-04-30T05:48:31.543Z,5.47
2023-04-30T05:50:58.190Z,5.93
2023-04-30T05:53:24.790Z,5.57
2023-04-30T05:55:51.484Z,6.38
2023-04-30T05:58:18.085Z,6.45
2023-04-30T06:00:44.670Z,6.43
2023-04-30T06:03:11.325Z,5.75
2023-04-30T06:05:38.040Z,6.13
2023-04-30T06:08:04.824Z,6.28
2023-04-30T06:10:31.541Z,6.47
2023-04-30T06:12:58.168Z,6.00
2023-04-30T06:15:24.755Z,6.80
2023-04-30T06:17:51.474Z,5.97
2023-04-30T06:20:18.215Z,6.22
2023-04-30T06:22:44.792Z,6.22
2023-04-30T06:25:11.405Z,6.88
2023-04-30T06:27:38.102Z,5.93
2023-04-30T06:30:05.225Z,6.30
2023-04-30T06:32:31.849Z,6.65
2023-04-30T06:34:58.866Z,5.80
2023-04-30T06:37:25.421Z,5.80
2023-04-30T06:39:52.088Z,5.78
2023-04-30T06:42:18.750Z,6.40
2023-04-30T06:44:46.118Z,6.47
2023-04-30T06:47:13.067Z,6.07
2023-04-30T06:49:39.643Z,6.60
2023-04-30T06:52:06.192Z,6.53
2023-04-30T06:54:32.790Z,6.05
2023-04-30T06:56:59.279Z,5.97
2023-04-30T06:59:25.886Z,6.18
2023-04-30T07:01:52.593Z,6.70
2023-04-30T07:04:20.100Z,6.43
2023-04-30T07:06:46.691Z,6.55
2023-04-30T07:09:15.190Z,7.03
2023-04-30T07:11:42.109Z,6.72
2023-04-30T07:14:08.740Z,6.57
2023-04-30T07:16:35.361Z,6.70
2023-04-30T07:19:01.988Z,6.25
2023-04-30T07:21:28.726Z,6.50
2023-04-30T07:23:55.419Z,6.53
2023-04-30T07:26:24.999Z,5.25
2023-04-30T07:28:52.651Z,5.90
2023-04-30T07:31:19.485Z,5.80
2023-04-30T07:33:46.159Z,6.05
2023-04-30T07:36:12.826Z,5.70
2023-04-30T07:38:39.452Z,5.70
2023-04-30T07:41:06.377Z,5.40
2023-04-30T07:43:32.954Z,5.43
2023-04-30T07:45:59.814Z,6.47
2023-04-30T07:48:26.452Z,5.88
2023-04-30T07:50:53.207Z,5.88
2023-04-30T07:53:19.982Z,6.38
2023-04-30T07:55:46.675Z,5.93
2023-04-30T07:58:13.244Z,5.43
2023-04-30T08:00:40.085Z,5.75
2023-04-30T08:03:06.853Z,5.60
2023-04-30T08:05:33.510Z,5.60
2023-04-30T08:08:01.052Z,5.80
2023-04-30T08:10:28.420Z,5.60
2023-04-30T08:12:55.078Z,5.93
2023-04-30T08:15:24.882Z,5.45
2023-04-30T08:17:52.129Z,6.00
2023-04-30T08:20:19.052Z,5.80
2023-04-30T08:22:47.259Z,4.88
2023-04-30T08:25:13.953Z,5.50
2023-04-30T08:27:40.696Z,4.97
2023-04-30T08:30:08.193Z,5.47
2023-04-30T08:32:38.691Z,5.13
2023-04-30T08:35:06.232Z,5.15
2023-04-30T08:37:33.452Z,5.35
2023-04-30T08:40:00.660Z,5.15
2023-04-30T08:42:32.386Z,5.20
2023-04-30T08:45:03.393Z,5.32
2023-04-30T08:47:30.603Z,5.00
2023-04-30T08:49:57.594Z,4.57
2023-04-30T08:52:26.793Z,5.53
2023-04-30T08:54:55.075Z,5.10
2023-04-30T08:57:21.711Z,4.32
2023-04-30T08:59:48.292Z,5.10
2023-04-30T09:02:14.891Z,4.57
2023-04-30T09:04:41.620Z,4.47
2023-04-30T09:07:09.791Z,5.18
2023-04-30T09:09:39.759Z,4.25
2023-04-30T09:12:20.489Z,4.03
2023-04-30T09:15:04.720Z,3.92
2023-04-30T09:17:32.560Z,4.60
2023-04-30T09:20:09.072Z,4.22
2023-04-30T09:22:37.448Z,4.68
2023-04-30T09:25:05.031Z,4.63
2023-04-30T09:27:31.691Z,4.20
2023-04-30T09:29:58.476Z,3.75
2023-04-30T09:32:25.693Z,3.80
2023-04-30T09:34:52.449Z,4.25
2023-04-30T09:37:19.386Z,3.60
2023-04-30T09:39:55.521Z,4.03
2023-04-30T09:42:22.684Z,4.05
2023-04-30T09:44:49.372Z,4.03
2023-04-30T09:47:16.721Z,4.03
2023-04-30T09:49:44.592Z,3.33
2023-04-30T09:52:12.017Z,4.15
2023-04-30T09:54:38.656Z,4.00
2023-04-30T09:57:05.641Z,3.70
2023-04-30T09:59:35.473Z,3.20
2023-04-30T10:02:04.839Z,3.75
2023-04-30T10:04:37.767Z,5.07
2023-04-30T10:07:18.181Z,4.63
2023-04-30T10:10:12.599Z,6.55
2023-04-30T10:12:51.035Z,4.70
2023-04-30T10:15:24.502Z,4.63
2023-04-30T10:18:16.767Z,4.70
2023-04-30T10:20:46.468Z,4.40
2023-04-30T10:23:13.916Z,4.18
2023-04-30T10:25:41.428Z,4.18
2023-04-30T10:28:08.903Z,4.13
2023-04-30T10:30:36.268Z,4.00
2023-04-30T10:33:17.318Z,3.70
2023-04-30T10:35:53.593Z,4.20
2023-04-30T10:38:26.056Z,3.70
2023-04-30T10:40:59.281Z,4.07
2023-04-30T10:43:26.942Z,4.18
2023-04-30T10:45:53.909Z,4.10
2023-04-30T10:48:27.397Z,3.88
2023-04-30T10:53:27.917Z,3.92
2023-04-30T10:55:59.951Z,6.70
2023-04-30T10:58:47.357Z,3.95
2023-04-30T11:01:20.765Z,3.67
2023-04-30T11:04:16.710Z,4.20
2023-04-30T11:07:02.294Z,3.97
2023-04-30T11:09:43.085Z,3.67
2023-04-30T11:12:12.896Z,3.75
2023-04-30T11:14:44.601Z,3.70
2023-04-30T11:17:13.665Z,3.50
2023-04-30T11:19:47.782Z,3.45
2023-04-30T11:22:17.181Z,3.25
2023-04-30T11:25:10.419Z,3.22
2023-04-30T11:27:38.977Z,3.45
2023-04-30T11:30:13.177Z,4.10
2023-04-30T11:32:40.160Z,3.33
2023-04-30T11:35:07.892Z,3.80
2023-04-30T11:37:39.178Z,5.13
2023-04-30T11:40:11.357Z,4.20
2023-04-30T11:42:39.573Z,3.80
2023-04-30T11:45:17.974Z,3.58
2023-04-30T11:47:49.407Z,3.72
2023-04-30T11:50:19.378Z,4.00
2023-04-30T11:52:51.024Z,3.95
2023-04-30T11:55:20.726Z,3.97
2023-04-30T11:57:49.967Z,3.97
2023-04-30T12:00:19.058Z,4.20
2023-04-30T12:02:48.124Z,3.78
2023-04-30T12:05:17.172Z,3.75
2023-04-30T12:07:52.318Z,4.13
2023-04-30T12:10:19.629Z,4.05
2023-04-30T12:12:48.861Z,3.95
2023-04-30T12:15:18.050Z,3.70
2023-04-30T12:17:46.615Z,3.90
2023-04-30T12:20:15.238Z,3.72
2023-04-30T12:22:43.483Z,4.00
2023-04-30T12:25:14.991Z,3.22
2023-04-30T12:27:49.917Z,3.63
2023-04-30T12:30:20.238Z,3.30
2023-04-30T12:32:50.316Z,3.55
2023-04-30T12:35:24.583Z,3.28
2023-04-30T12:38:05.383Z,3.22
2023-04-30T12:40:32.280Z,3.05
2023-04-30T12:43:06.142Z,3.13
2023-04-30T12:45:52.510Z,3.00
2023-04-30T12:48:21.111Z,3.05
2023-04-30T12:50:59.111Z,3.17
2023-04-30T12:53:27.324Z,3.42
2023-04-30T12:56:16.047Z,3.10
2023-04-30T12:58:45.930Z,3.10
2023-04-30T13:01:16.172Z,3.30
2023-04-30T13:03:43.965Z,2.95
2023-04-30T13:06:11.942Z,3.92
2023-04-30T13:08:53.978Z,3.70
2023-04-30T13:11:26.486Z,3.22
2023-04-30T13:13:55.392Z,3.28
2023-04-30T13:16:23.114Z,3.03
2023-04-30T13:18:52.306Z,3.08
2023-04-30T13:21:19.236Z,2.97
2023-04-30T13:23:52.761Z,2.55
2023-04-30T13:26:21.931Z,3.22
2023-04-30T13:28:49.368Z,2.83
2023-04-30T13:31:16.808Z,2.80
2023-04-30T13:33:44.949Z,3.13
2023-04-30T13:36:12.596Z,3.10
2023-04-30T13:38:40.659Z,3.10
2023-04-30T13:41:07.482Z,3.15
2023-04-30T13:43:34.104Z,2.80
2023-04-30T13:46:00.982Z,2.60
2023-04-30T13:48:27.561Z,3.17
2023-04-30T13:50:54.403Z,3.03
2023-04-30T13:53:21.037Z,3.47
2023-04-30T13:55:47.635Z,3.08
2023-04-30T13:58:14.457Z,2.83
2023-04-30T14:00:41.250Z,2.90
2023-04-30T14:03:08.505Z,3.50
2023-04-30T14:05:36.314Z,2.90
2023-04-30T14:08:03.217Z,2.83
2023-04-30T14:10:29.858Z,3.05
2023-04-30T14:12:56.395Z,2.70
2023-04-30T14:15:23.021Z,3.08
2023-04-30T14:17:49.672Z,2.75
2023-04-30T14:20:16.333Z,3.13
2023-04-30T14:22:43.389Z,3.33
2023-04-30T14:25:10.445Z,2.95
2023-04-30T14:27:37.292Z,2.80
2023-04-30T14:30:04.326Z,3.50
2023-04-30T14:32:31.048Z,2.75
2023-04-30T14:34:57.754Z,3.38
2023-04-30T14:37:25.152Z,3.00
2023-04-30T14:39:51.810Z,2.92
2023-04-30T14:42:18.507Z,2.95
2023-04-30T14:44:45.150Z,2.83
2023-04-30T14:47:12.476Z,2.97
2023-04-30T14:49:39.277Z,2.85
2023-04-30T14:52:05.922Z,3.17
2023-04-30T14:54:32.533Z,2.72
2023-04-30T14:56:59.114Z,2.97
2023-04-30T14:59:25.776Z,3.17
2023-04-30T15:01:52.445Z,2.72
2023-04-30T15:04:19.032Z,2.78
2023-04-30T15:06:45.750Z,2.80
2023-04-30T15:09:12.460Z,2.70
2023-04-30T15:11:39.002Z,2.67
2023-04-30T15:14:05.679Z,2.67
2023-04-30T15:16:32.526Z,2.92
2023-04-30T15:18:59.581Z,2.97
2023-04-30T15:21:26.720Z,3.03
2023-04-30T15:23:53.442Z,2.50
2023-04-30T15:26:20.116Z,2.75
2023-04-30T15:28:46.849Z,2.45
2023-04-30T15:31:13.490Z,2.63
2023-04-30T15:33:42.236Z,2.80
2023-04-30T15:36:10.580Z,2.60
2023-04-30T15:38:37.152Z,2.50
2023-04-30T15:41:03.708Z,2.38
2023-04-30T15:43:32.341Z,2.45
2023-04-30T15:45:59.340Z,2.50
2023-04-30T15:48:26.053Z,2.85
2023-04-30T15:50:52.749Z,2.72
2023-04-30T15:53:19.361Z,2.50
2023-04-30T15:55:46.839Z,2.50
2023-04-30T15:58:13.468Z,2.28
2023-04-30T16:00:40.167Z,2.60
2023-04-30T16:03:07.273Z,2.53
2023-04-30T16:05:38.690Z,2.65
2023-04-30T16:08:12.248Z,2.50
2023-04-30T16:10:39.036Z,2.70
2023-04-30T16:13:05.765Z,2.55
2023-04-30T16:15:32.563Z,3.28
2023-04-30T16:17:59.296Z,2.70
2023-04-30T16:20:27.397Z,2.92
2023-04-30T16:22:55.079Z,2.50
2023-04-30T16:25:22.699Z,3.08
2023-04-30T16:27:49.931Z,3.05
2023-04-30T16:30:16.622Z,2.78
2023-04-30T16:32:44.358Z,2.50
2023-04-30T16:35:11.468Z,3.47
2023-04-30T16:37:38.094Z,2.90
2023-04-30T16:40:06.511Z,2.55
2023-04-30T16:42:34.021Z,2.47
2023-04-30T16:45:00.727Z,2.83
2023-04-30T16:47:27.340Z,2.40
2023-04-30T16:49:55.779Z,2.90
2023-04-30T16:52:22.733Z,2.80
2023-04-30T16:54:49.468Z,3.00
2023-04-30T16:57:16.111Z,2.78
2023-04-30T16:59:42.698Z,2.90
2023-04-30T17:02:09.453Z,2.60
2023-04-30T17:04:36.081Z,2.90
2023-04-30T17:07:03.548Z,3.10
2023-04-30T17:09:30.327Z,2.88
2023-04-30T17:11:56.977Z,2.88
2023-04-30T17:14:23.617Z,2.90
2023-04-30T17:16:50.336Z,2.67
2023-04-30T17:19:18.119Z,3.00
2023-04-30T17:21:44.755Z,3.45
2023-04-30T17:24:11.453Z,2.70
2023-04-30T17:26:38.253Z,2.80
2023-04-30T17:29:06.254Z,2.70
2023-04-30T17:31:33.207Z,3.15
2023-04-30T17:34:02.771Z,2.92
2023-04-30T17:36:30.386Z,2.80
2023-04-30T17:38:57.132Z,2.67
2023-04-30T17:41:24.099Z,2.75
2023-04-30T17:43:51.733Z,2.97
2023-04-30T17:46:18.496Z,2.85
2023-04-30T17:48:45.246Z,2.67
2023-04-30T17:51:11.981Z,2.83
2023-04-30T17:53:38.725Z,3.30
2023-04-30T17:56:05.837Z,2.75
2023-04-30T17:58:32.754Z,3.40
2023-04-30T18:01:01.587Z,3.30
2023-04-30T18:03:28.649Z,3.65
2023-04-30T18:05:55.593Z,3.35
2023-04-30T18:08:22.314Z,3.10
2023-04-30T18:10:48.987Z,3.47
2023-04-30T18:13:15.510Z,3.90
2023-04-30T18:15:42.677Z,3.67
2023-04-30T18:18:09.932Z,3.08
2023-04-30T18:20:37.050Z,3.35
2023-04-30T18:23:05.852Z,3.25
2023-04-30T18:25:34.323Z,3.17
2023-04-30T18:28:01.465Z,3.70
2023-04-30T18:30:28.086Z,2.67
2023-04-30T18:32:54.672Z,3.05
2023-04-30T18:35:22.204Z,3.15
2023-04-30T18:37:49.674Z,3.00
2023-04-30T18:40:16.300Z,4.18
2023-04-30T18:42:42.837Z,3.20
2023-04-30T18:45:11.460Z,3.33
2023-04-30T18:47:38.316Z,3.42
2023-04-30T18:50:06.543Z,3.58
2023-04-30T18:52:33.419Z,3.90
2023-04-30T18:55:00.020Z,3.70
2023-04-30T18:57:26.578Z,3.95
2023-04-30T18:59:53.391Z,4.10
2023-04-30T19:02:21.911Z,3.83
2023-04-30T19:04:50.372Z,4.10
2023-04-30T19:07:17.078Z,3.97
2023-04-30T19:09:45.268Z,3.53
2023-04-30T19:12:12.178Z,4.00
2023-04-30T19:14:38.864Z,3.75
2023-04-30T19:17:05.709Z,4.47
2023-04-30T19:19:32.442Z,4.03
2023-04-30T19:21:59.218Z,4.13
2023-04-30T19:24:25.818Z,4.13
2023-04-30T19:26:52.600Z,4.07
2023-04-30T19:29:19.464Z,4.45
2023-04-30T19:31:46.232Z,4.45
2023-04-30T19:34:13.904Z,4.13
2023-04-30T19:36:44.222Z,4.68
2023-04-30T19:39:11.915Z,4.07
2023-04-30T19:41:39.309Z,4.43
2023-04-30T19:44:06.521Z,4.32
2023-04-30T19:46:33.098Z,4.93
2023-04-30T19:49:03.000Z,4.22
2023-04-30T19:51:29.634Z,4.72
2023-04-30T19:53:58.950Z,4.28
2023-04-30T19:56:25.656Z,4.50
2023-04-30T19:58:52.274Z,4.07
2023-04-30T20:01:18.903Z,4.22
2023-04-30T20:03:45.723Z,4.43
2023-04-30T20:06:12.574Z,4.03
2023-04-30T20:08:39.159Z,4.15
2023-04-30T20:11:05.764Z,3.83
2023-04-30T20:13:32.442Z,4.53
2023-04-30T20:15:59.064Z,4.07
2023-04-30T20:18:25.872Z,4.10
2023-04-30T20:20:52.534Z,3.85
2023-04-30T20:23:20.348Z,4.38
2023-04-30T20:25:47.105Z,3.80
2023-04-30T20:28:18.190Z,3.72
2023-04-30T20:30:44.799Z,4.05
2023-04-30T20:33:15.184Z,4.32
2023-04-30T20:35:45.524Z,3.83
2023-04-30T20:38:13.054Z,4.10
2023-04-30T20:40:42.533Z,4.20
2023-04-30T20:43:10.375Z,3.90
2023-04-30T20:45:37.315Z,3.55
2023-04-30T20:48:04.266Z,3.72
2023-04-30T20:50:30.952Z,3.92
2023-04-30T20:52:57.594Z,3.75
2023-04-30T20:55:24.459Z,3.95
2023-04-30T20:57:51.206Z,3.90
2023-04-30T21:00:18.185Z,3.70
2023-04-30T21:02:45.148Z,3.63
2023-04-30T21:05:11.980Z,3.97
2023-04-30T21:07:38.789Z,3.55
2023-04-30T21:10:08.925Z,4.03
2023-04-30T21:12:35.751Z,4.07
2023-04-30T21:15:02.666Z,3.40
2023-04-30T21:17:29.418Z,4.05
2023-04-30T21:19:57.306Z,3.80
2023-04-30T21:22:24.666Z,3.97
2023-04-30T21:24:54.376Z,3.72
2023-04-30T21:27:21.685Z,3.42
2023-04-30T21:29:48.585Z,3.92
2023-04-30T21:32:15.325Z,4.32
2023-04-30T21:34:41.887Z,4.00
2023-04-30T21:37:08.529Z,3.72
2023-04-30T21:39:35.161Z,3.88
2023-04-30T21:42:01.756Z,4.07
2023-04-30T21:44:32.342Z,4.13
2023-04-30T21:46:59.609Z,3.92
2023-04-30T21:49:26.374Z,3.72
2023-04-30T21:51:53.241Z,4.00
2023-04-30T21:54:19.858Z,3.97
2023-04-30T21:56:46.780Z,3.78
2023-04-30T21:59:13.432Z,3.50
2023-04-30T22:01:40.404Z,3.70
2023-04-30T22:04:07.098Z,3.63
2023-04-30T22:06:34.894Z,3.67
2023-04-30T22:09:01.845Z,3.25
2023-04-30T22:11:28.889Z,4.20
2023-04-30T22:13:55.586Z,3.83
2023-04-30T22:16:22.851Z,3.67
2023-04-30T22:18:49.474Z,3.83
2023-04-30T22:21:16.064Z,3.95
2023-04-30T22:23:42.606Z,3.65
2023-04-30T22:26:11.276Z,3.45
2023-04-30T22:28:38.379Z,4.00
2023-04-30T22:31:05.073Z,3.65
2023-04-30T22:33:38.252Z,3.75
2023-04-30T22:36:06.208Z,4.10
2023-04-30T22:38:33.287Z,3.17
2023-04-30T22:41:00.524Z,3.83
2023-04-30T22:43:29.254Z,3.55
2023-04-30T22:45:57.642Z,3.67
2023-04-30T22:48:24.793Z,3.65
2023-04-30T22:50:55.395Z,3.50
2023-04-30T22:53:22.240Z,3.67
2023-04-30T22:55:48.942Z,3.60
2023-04-30T22:58:15.978Z,3.42
2023-04-30T23:00:42.697Z,4.10
2023-04-30T23:03:09.364Z,3.70
2023-04-30T23:05:36.147Z,4.00
2023-04-30T23:08:04.358Z,3.15
2023-04-30T23:10:31.162Z,3.22
2023-04-30T23:12:58.854Z,3.70
2023-04-30T23:15:26.097Z,3.80
2023-04-30T23:17:54.583Z,3.38
2023-04-30T23:20:22.722Z,3.55
2023-04-30T23:22:49.586Z,3.25
2023-04-30T23:25:16.932Z,3.85
2023-04-30T23:27:45.064Z,3.95
2023-04-30T23:30:11.956Z,3.28
2023-04-30T23:32:38.828Z,3.72
2023-04-30T23:35:07.935Z,3.72
2023-04-30T23:37:35.286Z,3.63
2023-04-30T23:40:02.218Z,3.83
2023-04-30T23:42:28.791Z,3.60
2023-04-30T23:44:55.474Z,3.90
2023-04-30T23:47:22.061Z,3.45
2023-04-30T23:49:48.606Z,3.55
2023-04-30T23:52:15.230Z,4.03
2023-04-30T23:54:41.888Z,3.35
2023-04-30T23:57:08.507Z,3.45
2023-04-30T23:59:35.166Z,3.65
